createdAt,value
2023-01-04T00:02:00.986Z,16.85
2023-01-04T00:04:29.288Z,11.73
2023-01-04T00:06:58.041Z,11.75
2023-01-04T00:09:26.263Z,9.73
2023-01-04T00:11:54.502Z,10.80
2023-01-04T00:14:22.710Z,12.18
2023-01-04T00:16:52.407Z,12.88
2023-01-04T00:19:20.645Z,10.90
2023-01-04T00:21:48.905Z,9.97
2023-01-04T00:24:17.131Z,12.25
2023-01-04T00:26:45.458Z,14.93
2023-01-04T00:29:15.428Z,14.43
2023-01-04T00:31:45.625Z,14.27
2023-01-04T00:34:17.915Z,11.80
2023-01-04T00:36:46.525Z,13.77
2023-01-04T00:39:16.290Z,9.45
2023-01-04T00:42:01.964Z,10.20
2023-01-04T00:44:31.185Z,12.05
2023-01-04T00:47:00.218Z,11.57
2023-01-04T00:49:30.400Z,13.38
2023-01-04T00:51:59.206Z,11.77
2023-01-04T00:54:27.887Z,10.07
2023-01-04T00:56:56.182Z,13.18
2023-01-04T00:59:24.575Z,12.13
2023-01-04T01:01:53.302Z,8.47
2023-01-04T01:04:24.284Z,12.63
2023-01-04T01:06:54.209Z,9.13
2023-01-04T01:09:23.878Z,12.52
2023-01-04T01:11:52.767Z,11.73
2023-01-04T01:14:23.484Z,10.68
2023-01-04T01:16:56.012Z,12.43
2023-01-04T01:19:26.127Z,13.07
2023-01-04T01:21:57.147Z,11.95
2023-01-04T01:24:25.643Z,10.73
2023-01-04T01:26:54.812Z,12.23
2023-01-04T01:29:23.083Z,13.20
2023-01-04T01:31:51.389Z,13.57
2023-01-04T01:34:19.669Z,13.60
2023-01-04T01:36:47.935Z,11.00
2023-01-04T01:39:17.669Z,15.57
2023-01-04T01:41:46.209Z,14.65
2023-01-04T01:45:11.133Z,13.65
2023-01-04T01:47:43.568Z,17.07
2023-01-04T01:50:23.194Z,14.63
2023-01-04T01:52:52.684Z,16.67
2023-01-04T01:55:22.838Z,16.50
2023-01-04T01:57:52.526Z,15.80
2023-01-04T02:00:20.972Z,13.65
2023-01-04T02:03:00.479Z,17.75
2023-01-04T02:05:29.631Z,17.50
2023-01-04T02:07:57.927Z,17.67
2023-01-04T02:10:28.489Z,11.27
2023-01-04T02:12:56.996Z,16.67
2023-01-04T02:15:29.832Z,12.77
2023-01-04T02:18:06.304Z,15.75
2023-01-04T02:20:42.974Z,18.37
2023-01-04T02:23:59.076Z,17.63
2023-01-04T02:27:09.285Z,12.73
2023-01-04T02:30:19.471Z,16.77
2023-01-04T02:33:01.018Z,15.35
2023-01-04T02:35:37.211Z,16.30
2023-01-04T02:38:16.055Z,18.63
2023-01-04T02:40:53.027Z,17.48
2023-01-04T02:43:45.637Z,21.30
2023-01-04T02:46:18.781Z,19.42
2023-01-04T02:49:17.571Z,14.23
2023-01-04T02:51:45.839Z,17.33
2023-01-04T02:54:16.585Z,21.95
2023-01-04T02:57:05.160Z,18.75
2023-01-04T02:59:56.572Z,19.15
2023-01-04T03:02:53.897Z,19.52
2023-01-04T03:05:46.214Z,19.63
2023-01-04T03:08:22.836Z,15.25
2023-01-04T03:10:56.740Z,13.57
2023-01-04T03:13:29.167Z,18.30
2023-01-04T03:16:02.716Z,13.45
2023-01-04T03:18:32.856Z,12.75
2023-01-04T03:21:05.820Z,18.65
2023-01-04T03:23:55.211Z,12.32
2023-01-04T03:26:44.000Z,17.50
2023-01-04T03:29:36.090Z,14.43
2023-01-04T03:32:26.865Z,18.77
2023-01-04T03:35:13.498Z,17.92
2023-01-04T03:37:50.922Z,18.50
2023-01-04T03:40:44.471Z,15.30
2023-01-04T03:43:36.476Z,12.87
2023-01-04T03:46:27.438Z,19.38
2023-01-04T03:49:02.823Z,17.33
2023-01-04T03:51:35.905Z,17.25
2023-01-04T03:54:10.358Z,19.63
2023-01-04T03:56:41.852Z,16.77
2023-01-04T03:59:10.657Z,19.23
2023-01-04T04:01:39.747Z,14.80
2023-01-04T04:04:25.680Z,18.60
2023-01-04T04:07:11.181Z,15.63
2023-01-04T04:09:40.852Z,13.38
2023-01-04T04:12:09.288Z,21.02
2023-01-04T04:14:37.486Z,17.30
2023-01-04T04:17:05.768Z,18.20
2023-01-04T04:19:34.058Z,16.95
2023-01-04T04:22:02.286Z,15.67
2023-01-04T04:24:30.581Z,16.50
2023-01-04T04:27:00.197Z,20.23
2023-01-04T04:29:28.428Z,20.08
2023-01-04T04:31:56.668Z,17.02
2023-01-04T04:34:24.916Z,19.38
2023-01-04T04:36:53.144Z,20.65
2023-01-04T04:39:22.564Z,16.48
2023-01-04T04:41:49.789Z,22.30
2023-01-04T04:44:20.549Z,15.23
2023-01-04T04:46:49.984Z,20.08
2023-01-04T04:49:19.525Z,17.95
2023-01-04T04:51:48.421Z,19.42
2023-01-04T04:54:18.699Z,16.75
2023-01-04T04:56:47.040Z,17.13
2023-01-04T04:59:15.590Z,22.00
2023-01-04T05:01:45.399Z,16.67
2023-01-04T05:04:16.773Z,16.15
2023-01-04T05:06:45.810Z,19.55
2023-01-04T05:09:14.946Z,20.75
2023-01-04T05:12:01.365Z,21.20
2023-01-04T05:14:30.085Z,19.63
2023-01-04T05:16:59.714Z,24.90
2023-01-04T05:19:28.004Z,16.40
2023-01-04T05:21:56.419Z,16.03
2023-01-04T05:24:24.705Z,15.95
2023-01-04T05:26:52.932Z,21.38
2023-01-04T05:29:38.519Z,17.88
2023-01-04T05:32:08.362Z,24.67
2023-01-04T05:34:36.712Z,23.60
2023-01-04T05:37:05.057Z,22.17
2023-01-04T05:39:33.273Z,19.77
2023-01-04T05:42:18.803Z,17.80
2023-01-04T05:44:47.053Z,18.38
2023-01-04T05:47:16.669Z,22.67
2023-01-04T05:49:45.028Z,18.30
2023-01-04T05:52:13.380Z,21.27
2023-01-04T05:54:42.047Z,23.13
2023-01-04T05:57:11.033Z,20.83
2023-01-04T05:59:42.194Z,19.70
2023-01-04T06:02:17.959Z,24.52
2023-01-04T06:04:46.469Z,19.48
2023-01-04T06:07:14.912Z,16.20
2023-01-04T06:09:43.276Z,25.42
2023-01-04T06:12:12.009Z,22.25
2023-01-04T06:14:40.585Z,19.80
2023-01-04T06:17:09.442Z,19.92
2023-01-04T06:19:39.121Z,26.08
2023-01-04T06:22:07.743Z,21.80
2023-01-04T06:24:36.102Z,23.52
2023-01-04T06:27:04.937Z,20.55
2023-01-04T06:29:33.317Z,18.90
2023-01-04T06:32:01.570Z,17.90
2023-01-04T06:34:31.493Z,20.55
2023-01-04T06:37:01.463Z,18.42
2023-01-04T06:39:30.778Z,17.90
2023-01-04T06:42:06.231Z,18.37
2023-01-04T06:44:35.356Z,20.38
2023-01-04T06:47:03.630Z,19.80
2023-01-04T06:49:31.923Z,22.40
2023-01-04T06:52:01.573Z,21.05
2023-01-04T06:54:32.779Z,21.48
2023-01-04T06:57:01.025Z,24.02
2023-01-04T06:59:29.266Z,22.83
2023-01-04T07:01:57.644Z,20.90
2023-01-04T07:04:26.262Z,21.23
2023-01-04T07:06:54.666Z,19.77
2023-01-04T07:09:24.546Z,18.37
2023-01-04T07:11:52.879Z,16.90
2023-01-04T07:14:21.100Z,18.95
2023-01-04T07:16:49.365Z,17.98
2023-01-04T07:19:17.826Z,18.98
2023-01-04T07:21:46.130Z,19.17
2023-01-04T07:24:14.532Z,16.67
2023-01-04T07:26:44.161Z,21.27
2023-01-04T07:29:18.034Z,12.27
2023-01-04T07:31:49.031Z,17.10
2023-01-04T07:34:19.427Z,16.33
2023-01-04T07:36:48.848Z,17.60
2023-01-04T07:39:18.444Z,14.25
2023-01-04T07:41:48.860Z,23.08
2023-01-04T07:44:18.257Z,16.95
2023-01-04T07:46:46.863Z,16.33
2023-01-04T07:49:18.652Z,20.70
2023-01-04T07:51:47.786Z,18.85
2023-01-04T07:54:16.478Z,20.38
2023-01-04T07:56:44.877Z,16.90
2023-01-04T07:59:16.150Z,16.50
2023-01-04T08:01:44.809Z,20.08
2023-01-04T08:04:14.457Z,15.32
2023-01-04T08:06:44.432Z,20.48
2023-01-04T08:09:13.928Z,16.83
2023-01-04T08:11:42.341Z,17.17
2023-01-04T08:14:11.012Z,15.98
2023-01-04T08:16:42.421Z,19.83
2023-01-04T08:19:14.730Z,18.75
2023-01-04T08:21:43.432Z,18.33
2023-01-04T08:24:12.535Z,20.38
2023-01-04T08:26:42.207Z,18.83
2023-01-04T08:29:11.191Z,20.30
2023-01-04T08:31:41.755Z,20.65
2023-01-04T08:34:11.113Z,21.38
2023-01-04T08:36:48.524Z,23.95
2023-01-04T08:39:17.108Z,18.48
2023-01-04T08:42:02.565Z,25.07
2023-01-04T08:44:34.579Z,24.00
2023-01-04T08:47:04.468Z,26.20
2023-01-04T08:49:32.893Z,19.40
2023-01-04T08:52:01.142Z,22.65
2023-01-04T08:54:29.657Z,15.93
2023-01-04T08:56:57.966Z,18.80
2023-01-04T08:59:26.209Z,19.73
2023-01-04T09:01:58.502Z,19.37
2023-01-04T09:04:32.614Z,16.77
2023-01-04T09:07:00.992Z,19.83
2023-01-04T09:09:30.237Z,19.90
2023-01-04T09:11:59.867Z,14.52
2023-01-04T09:14:28.378Z,20.80
2023-01-04T09:16:57.007Z,18.50
2023-01-04T09:19:25.293Z,17.88
2023-01-04T09:21:55.196Z,17.55
2023-01-04T09:24:23.726Z,14.83
2023-01-04T09:26:51.989Z,22.65
2023-01-04T09:29:20.487Z,14.07
2023-01-04T09:31:49.491Z,18.85
2023-01-04T09:34:18.260Z,17.67
2023-01-04T09:36:47.472Z,24.17
2023-01-04T09:39:23.177Z,20.40
2023-01-04T09:41:58.062Z,17.98
2023-01-04T09:47:38.492Z,15.68
2023-01-04T09:50:13.390Z,17.52
2023-01-04T09:52:50.601Z,21.05
2023-01-04T09:55:37.600Z,17.27
2023-01-04T09:58:18.729Z,19.13
2023-01-04T10:00:50.711Z,13.45
2023-01-04T10:03:23.895Z,14.70
2023-01-04T10:05:54.090Z,8.32
2023-01-04T10:08:23.101Z,17.83
2023-01-04T10:11:06.083Z,15.30
2023-01-04T10:14:01.714Z,15.70
2023-01-04T10:17:11.892Z,13.98
2023-01-04T10:22:41.361Z,13.75
2023-01-04T10:25:24.918Z,16.90
2023-01-04T10:28:08.145Z,14.83
2023-01-04T10:30:47.722Z,13.82
2023-01-04T10:33:20.309Z,14.87
2023-01-04T10:35:50.733Z,11.43
2023-01-04T10:38:22.212Z,15.63
2023-01-04T10:40:50.954Z,15.05
2023-01-04T10:44:11.579Z,14.55
2023-01-04T10:46:31.778Z,13.10
2023-01-04T10:49:07.610Z,13.18
2023-01-04T10:51:43.053Z,16.38
2023-01-04T10:54:20.733Z,15.82
2023-01-04T10:57:02.312Z,13.27
2023-01-04T10:59:40.461Z,15.07
2023-01-04T11:02:18.078Z,12.10
2023-01-04T11:04:53.779Z,13.02
2023-01-04T11:07:27.176Z,15.25
2023-01-04T11:09:59.049Z,17.55
2023-01-04T11:12:28.676Z,18.35
2023-01-04T11:14:58.441Z,13.73
2023-01-04T11:17:27.357Z,10.80
2023-01-04T11:19:56.356Z,15.40
2023-01-04T11:22:30.831Z,14.20
2023-01-04T11:27:57.527Z,16.13
2023-01-04T11:30:32.376Z,14.05
2023-01-04T11:33:04.761Z,13.40
2023-01-04T11:35:42.969Z,16.35
2023-01-04T11:38:14.516Z,16.20
2023-01-04T11:40:42.990Z,18.55
2023-01-04T11:43:19.504Z,16.08
2023-01-04T11:46:04.552Z,16.88
2023-01-04T11:48:39.393Z,17.50
2023-01-04T11:51:18.284Z,16.38
2023-01-04T11:53:47.007Z,13.82
2023-01-04T11:56:18.795Z,15.82
2023-01-04T11:59:06.041Z,20.47
2023-01-04T12:01:39.370Z,12.93
2023-01-04T12:04:17.275Z,17.88
2023-01-04T12:06:52.375Z,16.93
2023-01-04T12:09:22.341Z,15.60
2023-01-04T12:11:52.399Z,19.90
2023-01-04T12:14:24.107Z,17.45
2023-01-04T12:16:59.379Z,12.30
2023-01-04T12:19:28.258Z,13.65
2023-01-04T12:21:59.599Z,12.68
2023-01-04T12:24:30.674Z,15.05
2023-01-04T12:26:59.357Z,12.50
2023-01-04T12:29:57.889Z,14.80
2023-01-04T12:32:48.644Z,14.95
2023-01-04T12:35:58.539Z,13.63
2023-01-04T12:39:00.417Z,15.67
2023-01-04T12:42:19.549Z,14.20
2023-01-04T12:45:24.187Z,13.57
2023-01-04T12:48:13.144Z,14.90
2023-01-04T12:51:32.646Z,14.13
2023-01-04T12:54:03.564Z,15.63
2023-01-04T12:57:08.786Z,13.38
2023-01-04T12:59:39.250Z,16.77
2023-01-04T13:02:23.420Z,12.82
2023-01-04T13:05:16.870Z,12.35
2023-01-04T13:07:46.940Z,16.65
2023-01-04T13:10:28.059Z,15.60
2023-01-04T13:13:20.687Z,17.55
2023-01-04T13:16:00.310Z,17.50
2023-01-04T13:18:36.029Z,10.60
2023-01-04T13:21:13.557Z,11.68
2023-01-04T13:23:48.301Z,11.05
2023-01-04T13:26:33.246Z,15.43
2023-01-04T13:29:17.312Z,16.27
2023-01-04T13:31:55.523Z,12.98
2023-01-04T13:34:27.512Z,16.50
2023-01-04T13:37:08.839Z,13.75
2023-01-04T13:39:38.158Z,15.43
2023-01-04T13:42:12.784Z,11.43
2023-01-04T13:45:25.687Z,12.25
2023-01-04T13:47:58.656Z,11.10
2023-01-04T13:50:34.856Z,12.98
2023-01-04T13:53:08.400Z,13.90
2023-01-04T13:55:39.005Z,7.75
2023-01-04T13:58:16.857Z,13.27
2023-01-04T14:00:49.536Z,11.25
2023-01-04T14:03:37.381Z,11.40
2023-01-04T14:06:22.127Z,9.18
2023-01-04T14:09:05.991Z,9.45
2023-01-04T14:12:07.228Z,9.88
2023-01-04T14:14:41.539Z,10.25
2023-01-04T14:17:19.851Z,7.70
2023-01-04T14:19:51.281Z,10.75
2023-01-04T14:22:53.772Z,9.75
2023-01-04T14:25:44.887Z,12.70
2023-01-04T14:28:48.675Z,8.75
2023-01-04T14:31:37.403Z,12.32
2023-01-04T14:34:15.678Z,14.25
2023-01-04T14:36:44.908Z,10.10
2023-01-04T14:39:33.296Z,11.40
2023-01-04T14:42:04.178Z,11.18
2023-01-04T14:44:35.992Z,8.32
2023-01-04T14:47:07.821Z,8.93
2023-01-04T14:49:36.217Z,10.75
2023-01-04T14:52:10.819Z,13.63
2023-01-04T14:54:39.798Z,14.95
2023-01-04T14:57:11.212Z,13.65
2023-01-04T14:59:39.449Z,13.65
2023-01-04T15:02:07.881Z,14.82
2023-01-04T15:04:36.359Z,14.07
2023-01-04T15:07:05.070Z,11.38
2023-01-04T15:09:33.384Z,12.83
2023-01-04T15:12:02.929Z,10.95
2023-01-04T15:14:32.658Z,14.53
2023-01-04T15:17:00.899Z,15.65
2023-01-04T15:19:34.163Z,8.57
2023-01-04T15:22:05.900Z,11.33
2023-01-04T15:24:34.204Z,16.60
2023-01-04T15:27:02.454Z,12.00
2023-01-04T15:29:32.105Z,14.67
2023-01-04T15:32:00.456Z,13.73
2023-01-04T15:34:28.698Z,10.73
2023-01-04T15:36:56.955Z,14.25
2023-01-04T15:39:25.842Z,15.70
2023-01-04T15:42:11.259Z,17.83
2023-01-04T15:44:41.944Z,18.40
2023-01-04T15:47:10.388Z,14.73
2023-01-04T15:49:39.822Z,14.93
2023-01-04T15:52:08.123Z,15.35
2023-01-04T15:54:36.307Z,13.80
2023-01-04T15:57:04.549Z,14.98
2023-01-04T15:59:33.014Z,17.45
2023-01-04T16:02:02.778Z,14.15
2023-01-04T16:04:31.099Z,10.43
2023-01-04T16:06:59.404Z,14.77
2023-01-04T16:09:27.863Z,13.45
2023-01-04T16:12:13.610Z,10.45
2023-01-04T16:14:41.843Z,13.70
2023-01-04T16:17:11.461Z,15.80
2023-01-04T16:19:39.999Z,13.85
2023-01-04T16:22:08.232Z,10.38
2023-01-04T16:25:09.279Z,14.10
2023-01-04T16:27:29.689Z,10.80
2023-01-04T16:30:01.745Z,12.82
2023-01-04T16:32:31.431Z,13.18
2023-01-04T16:34:59.757Z,12.27
2023-01-04T16:37:29.608Z,14.90
2023-01-04T16:40:06.328Z,11.75
2023-01-04T16:42:35.924Z,17.60
2023-01-04T16:45:04.455Z,13.83
2023-01-04T16:47:40.177Z,14.55
2023-01-04T16:50:09.938Z,12.57
2023-01-04T16:52:38.325Z,17.80
2023-01-04T16:55:08.119Z,13.73
2023-01-04T16:57:36.448Z,13.05
2023-01-04T17:00:06.480Z,15.18
2023-01-04T17:02:36.215Z,13.40
2023-01-04T17:05:04.859Z,12.55
2023-01-04T17:07:33.659Z,15.60
2023-01-04T17:10:01.934Z,16.55
2023-01-04T17:12:47.518Z,13.60
2023-01-04T17:15:42.488Z,11.68
2023-01-04T17:18:06.766Z,15.25
2023-01-04T17:20:35.057Z,12.77
2023-01-04T17:23:03.314Z,11.23
2023-01-04T17:25:32.422Z,12.27
2023-01-04T17:28:01.772Z,12.57
2023-01-04T17:30:30.021Z,13.88
2023-01-04T17:32:58.281Z,13.45
2023-01-04T17:35:27.996Z,12.68
2023-01-04T17:37:56.217Z,14.80
2023-01-04T17:40:24.483Z,10.70
2023-01-04T17:42:52.832Z,11.03
2023-01-04T17:45:21.245Z,17.10
2023-01-04T17:47:49.806Z,12.35
2023-01-04T17:50:18.277Z,15.00
2023-01-04T17:52:49.073Z,13.85
2023-01-04T17:55:17.697Z,15.03
2023-01-04T17:57:46.319Z,12.43
2023-01-04T18:00:15.825Z,15.90
2023-01-04T18:02:46.282Z,14.15
2023-01-04T18:05:14.606Z,13.70
2023-01-04T18:07:43.167Z,12.63
2023-01-04T18:10:21.468Z,15.77
2023-01-04T18:13:01.782Z,13.20
2023-01-04T18:15:30.061Z,12.13
2023-01-04T18:17:58.311Z,13.70
2023-01-04T18:20:27.630Z,14.02
2023-01-04T18:22:55.882Z,16.17
2023-01-04T18:25:26.171Z,12.13
2023-01-04T18:27:54.689Z,13.32
2023-01-04T18:30:23.119Z,15.67
2023-01-04T18:32:52.043Z,14.70
2023-01-04T18:35:20.622Z,18.15
2023-01-04T18:37:49.110Z,15.30
2023-01-04T18:40:17.642Z,11.85
2023-01-04T18:42:51.568Z,14.57
2023-01-04T18:45:20.545Z,16.77
2023-01-04T18:47:49.249Z,11.48
2023-01-04T18:50:18.534Z,12.45
2023-01-04T18:52:46.922Z,12.40
2023-01-04T18:55:15.216Z,17.30
2023-01-04T18:57:43.764Z,11.68
2023-01-04T19:00:15.323Z,12.00
2023-01-04T19:02:44.021Z,12.57
2023-01-04T19:05:13.522Z,14.87
2023-01-04T19:07:41.875Z,14.73
2023-01-04T19:10:10.891Z,12.15
2023-01-04T19:12:39.449Z,14.17
2023-01-04T19:15:09.849Z,10.18
2023-01-04T19:17:39.908Z,11.90
2023-01-04T19:20:09.258Z,14.57
2023-01-04T19:22:37.773Z,11.43
2023-01-04T19:25:07.347Z,16.70
2023-01-04T19:27:35.891Z,9.20
2023-01-04T19:30:04.590Z,15.20
2023-01-04T19:32:33.899Z,12.95
2023-01-04T19:35:04.091Z,11.55
2023-01-04T19:37:32.545Z,12.68
2023-01-04T19:40:00.870Z,9.83
2023-01-04T19:42:29.303Z,11.75
2023-01-04T19:44:57.617Z,13.10
2023-01-04T19:47:25.907Z,12.70
2023-01-04T19:49:54.341Z,11.45
2023-01-04T19:52:24.007Z,9.18
2023-01-04T19:54:52.243Z,8.85
2023-01-04T19:57:21.681Z,10.95
2023-01-04T19:59:49.971Z,11.45
2023-01-04T20:02:18.426Z,10.88
2023-01-04T20:04:47.246Z,9.77
2023-01-04T20:07:15.464Z,10.00
2023-01-04T20:09:45.165Z,13.02
2023-01-04T20:12:13.587Z,10.73
2023-01-04T20:14:41.799Z,11.68
2023-01-04T20:17:10.225Z,15.82
2023-01-04T20:19:38.512Z,12.40
2023-01-04T20:22:07.204Z,11.77
2023-01-04T20:24:35.763Z,11.80
2023-01-04T20:27:05.529Z,9.93
2023-01-04T20:29:34.072Z,12.45
2023-01-04T20:32:03.980Z,9.07
2023-01-04T20:34:32.305Z,15.95
2023-01-04T20:37:00.592Z,12.15
2023-01-04T20:39:28.821Z,12.82
2023-01-04T20:42:15.395Z,19.02
2023-01-04T20:44:45.163Z,13.95
2023-01-04T20:47:13.643Z,11.27
2023-01-04T20:49:42.077Z,14.52
2023-01-04T20:52:10.586Z,18.55
2023-01-04T20:54:39.260Z,14.43
2023-01-04T20:57:08.076Z,12.13
2023-01-04T20:59:36.459Z,11.23
2023-01-04T21:02:06.351Z,12.23
2023-01-04T21:04:34.898Z,15.63
2023-01-04T21:07:03.599Z,10.63
2023-01-04T21:09:31.994Z,12.82
2023-01-04T21:12:04.936Z,12.80
2023-01-04T21:14:38.176Z,13.30
2023-01-04T21:17:07.874Z,13.43
2023-01-04T21:19:36.322Z,19.63
2023-01-04T21:22:04.625Z,12.20
2023-01-04T21:24:33.899Z,14.13
2023-01-04T21:27:02.429Z,13.05
2023-01-04T21:29:30.841Z,12.90
2023-01-04T21:31:59.102Z,12.63
2023-01-04T21:34:31.657Z,12.73
2023-01-04T21:37:00.324Z,13.20
2023-01-04T21:39:28.691Z,10.00
2023-01-04T21:41:57.135Z,16.05
2023-01-04T21:44:25.527Z,13.77
2023-01-04T21:46:54.133Z,10.82
2023-01-04T21:49:22.571Z,16.52
2023-01-04T21:51:52.400Z,15.10
2023-01-04T21:54:20.693Z,14.00
2023-01-04T21:56:50.758Z,15.07
2023-01-04T21:59:19.171Z,12.25
2023-01-04T22:01:47.892Z,13.95
2023-01-04T22:04:16.684Z,12.68
2023-01-04T22:06:45.253Z,12.00
2023-01-04T22:09:14.978Z,12.77
2023-01-04T22:11:43.609Z,12.73
2023-01-04T22:14:12.040Z,12.50
2023-01-04T22:16:40.732Z,15.52
2023-01-04T22:19:11.108Z,10.20
2023-01-04T22:21:39.524Z,14.82
2023-01-04T22:24:09.015Z,18.20
2023-01-04T22:26:38.809Z,13.32
2023-01-04T22:29:07.422Z,17.15
2023-01-04T22:31:36.136Z,12.50
2023-01-04T22:34:04.459Z,10.80
2023-01-04T22:36:33.020Z,14.82
2023-01-04T22:39:01.360Z,13.15
2023-01-04T22:41:30.052Z,11.20
2023-01-04T22:44:01.481Z,15.43
2023-01-04T22:46:31.270Z,13.00
2023-01-04T22:49:00.312Z,12.07
2023-01-04T22:51:30.406Z,15.85
2023-01-04T22:54:00.298Z,15.52
2023-01-04T22:56:29.669Z,14.77
2023-01-04T22:59:00.424Z,12.93
2023-01-04T23:01:31.028Z,14.77
2023-01-04T23:04:01.013Z,14.83
2023-01-04T23:06:31.293Z,16.40
2023-01-04T23:09:01.382Z,11.88
2023-01-04T23:11:31.141Z,14.60
2023-01-04T23:14:02.882Z,8.00
2023-01-04T23:16:32.996Z,10.88
2023-01-04T23:19:02.165Z,10.27
2023-01-04T23:21:31.034Z,7.63
2023-01-04T23:23:59.578Z,12.70
2023-01-04T23:26:29.869Z,6.82
2023-01-04T23:28:58.263Z,9.15
2023-01-04T23:31:30.553Z,10.77
2023-01-04T23:34:00.562Z,10.80
2023-01-04T23:36:30.820Z,8.15
2023-01-04T23:39:01.253Z,9.18
2023-01-04T23:41:43.825Z,9.52
2023-01-04T23:44:14.324Z,9.18
2023-01-04T23:46:44.201Z,10.57
2023-01-04T23:49:12.856Z,8.23
2023-01-04T23:51:42.765Z,6.15
2023-01-04T23:54:11.399Z,10.18
2023-01-04T23:56:40.217Z,8.15
2023-01-04T23:59:09.248Z,7.47
